Latest Coastal Weather Observations for Lord Howe Island

IDN60701

Issued at 8:51 pm EST Sunday 19 April 2015 (issued every 10 minutes, with the page automatically refreshed every 10 minutes)

About coastal observations | Map of coastal stations | Coastal observations for NSW | Marine services | Other Formats
Station Details ID: 200839 Name: LORD HOWE ISLAND AERO Lat: -31.54 Lon: 159.08 Height: 5.0 m
Data from the previous 72 hours. | See also: Recent months at Lord Howe Island
Date/Time
EST
Temp

°C
Wind Pressure Rain
since 9am
mm
Weather Cloud Vis
km
Sea
Height
m
Swell
Dir
 
Speed
knots
Gust
knots
hPa Trend Height
m
Period
s
Dir
19/08:50pm 22.1 N 6 10 1020.6 - 6.8 - Partly cloudy 10 - - - -
19/08:33pm 21.6 NNW 7 11 1020.6 - 6.8 - Partly cloudy 6 - - - -
19/08:30pm 21.8 N 6 11 1020.8 - 6.0 - Cloudy 10 - - - -
19/08:11pm 20.6 S 5 7 1020.5 - 6.0 - Partly cloudy 10 - - - -
19/08:05pm 20.2 SSW 5 6 1020.4 - 6.0 - Partly cloudy 10 - - - -
19/08:00pm 20.4 S 3 5 1020.5 - 6.0 - Partly cloudy 4 - - - -
19/07:46pm 20.5 NE 8 11 1020.5 - 4.6 - Partly cloudy 4 - - - -
19/07:34pm 20.3 N 7 10 1020.6 - 2.8 - Partly cloudy 6 - - - -
19/07:30pm 20.5 NNE 7 12 1020.6 - 2.2 - Partly cloudy 8 - - - -
19/07:08pm 20.9 NNE 7 13 1020.6 - 2.0 - Partly cloudy 10 - - - -
19/07:00pm 20.8 N 8 13 1020.6 - 2.0 - Partly cloudy 8 - - - -
19/06:52pm 21.4 NW 7 13 1020.5 - 1.4 - Partly cloudy 6 - - - -
19/06:50pm 21.5 NW 7 12 1020.4 - 1.4 - Partly cloudy 7 - - - -
19/06:30pm 21.4 WNW 7 13 1020.2 - 0.6 - Partly cloudy 6 - - - -
19/06:29pm 21.4 WNW 7 13 1020.3 - 0.4 - Partly cloudy 6 - - - -
19/06:00pm 23.5 N 8 15 1019.8 - 0.0 - Partly cloudy 10 - - - -
19/05:30pm 23.3 N 8 15 1019.4 - 0.0 - Mostly clear 10 - - - -
19/05:00pm 23.3 N 9 13 1019.3 - 0.0 - Partly cloudy 10 - - - -
19/04:30pm 23.2 NNE 7 11 1019.3 - 0.0 - Partly cloudy 10 - - - -
19/04:00pm 23.4 N 9 18 1019.4 - 0.0 - Partly cloudy 10 - - - -
19/03:30pm 23.5 N 9 15 1019.4 - 0.0 - Partly cloudy 10 - - - -
19/03:00pm 23.5 N 9 18 1019.4 - 0.0 - Partly cloudy 10 - - - -
19/02:30pm 23.7 NNE 9 18 1019.4 F 0.0 Fine Cloudy 20 - - - -
19/02:00pm 24.1 NNE 9 18 1019.4 - 0.0 - Partly cloudy 10 - - - -
19/01:30pm 24.1 NNE 9 18 1019.4 - 0.0 - Partly cloudy 10 - - - -
19/01:00pm 24.6 NNE 7 11 1019.6 - 0.0 - Partly cloudy 10 - - - -
19/12:30pm 25.2 N 8 17 1019.9 - 0.0 - Partly cloudy 10 - - - -
19/12:00pm 25.5 NNE 8 17 1020.3 - 0.0 - Partly cloudy 10 - - - -
19/11:30am 24.6 N 9 15 1020.7 - 0.0 - Mostly cloudy 10 - - - -
19/11:00am 24.6 NNE 12 22 1021.1 - 0.0 - Partly cloudy 10 - - - -
19/10:30am 24.6 NNE 11 15 1021.7 - 0.0 - Partly cloudy 10 - - - -
19/10:00am 24.4 NNE 11 18 1021.7 - 0.0 - Partly cloudy 10 - - - -
19/09:30am 24.2 N 8 13 1021.8 - 0.0 - Partly cloudy 10 - - - -
19/09:00am 23.7 NNE 11 22 1021.9 - 0.0 - Partly cloudy 10 - - - -
19/08:54am 23.3 NE 15 22 1021.8 - 0.0 - Partly cloudy 10 - - - -
19/08:30am 23.5 N 7 10 1021.9 F 0.2 Fine Mostly cloudy 25 - - - -
19/08:00am 22.9 NNE 15 19 1021.6 - 0.2 - - 10 - - - -
19/07:30am 22.6 NNE 12 19 1021.7 - 0.2 - - 10 - - - -
19/07:00am 22.7 N 9 15 1021.9 - 0.2 - Partly cloudy 10 - - - -
19/06:30am 22.4 N 8 15 1021.3 - 0.2 - Partly cloudy 10 - - - -
19/06:00am 22.2 NNE 9 16 1021.1 - 0.2 - Partly cloudy 10 - - - -
19/05:30am 22.0 NNE 10 16 1021.0 F 0.2 Fine Mostly cloudy 20 - - - -
19/05:00am 22.3 N 8 13 1021.2 - 0.0 - Partly cloudy 10 - - - -
19/04:30am 21.8 NNE 7 15 1021.3 - 0.0 - Partly cloudy 10 - - - -
19/04:00am 22.2 N 8 13 1021.2 - 0.0 - Partly cloudy 10 - - - -
19/03:30am 22.1 N 9 15 1021.2 - 0.0 - - 10 - - - -
19/03:00am 22.1 N 7 13 1021.1 - 0.0 - Partly cloudy 10 - - - -
19/02:30am 22.1 N 8 15 1021.2 - 0.0 - - 10 - - - -
19/02:00am 22.3 N 8 17 1021.5 - 0.0 - Partly cloudy 10 - - - -
19/01:30am 22.3 N 10 21 1022.1 - 0.0 - Partly cloudy 10 - - - -
19/01:00am 22.2 NNE 11 16 1022.5 - 0.0 - Partly cloudy 10 - - - -
19/12:30am 22.2 NNE 11 21 1022.9 - 0.0 - Partly cloudy 10 - - - -
19/12:00am 22.4 NNE 10 19 1023.3 - 0.0 - Partly cloudy 10 - - - -
 
Date/Time
EST
Temp

°C
Wind Pressure Rain
since 9am
mm
Weather Cloud Vis
km
Sea
Height
m
Swell
Dir
 
Speed
knots
Gust
knots
hPa Trend Height
m
Period
s
Dir
18/11:30pm 22.2 NNE 13 17 1023.3 - 0.0 - Partly cloudy 10 - - - -
18/11:00pm 22.3 NE 15 19 1023.4 - 0.0 - Partly cloudy 10 - - - -
18/10:30pm 22.1 NNE 15 20 1023.4 - 0.0 - Partly cloudy 10 - - - -
18/10:00pm 22.4 NNE 13 16 1024.0 - 0.0 - Partly cloudy 10 - - - -
18/09:30pm 22.2 NNE 13 15 1024.1 - 0.0 - Partly cloudy 10 - - - -
18/09:00pm 22.1 NNE 12 15 1024.3 - 0.0 - Partly cloudy 10 - - - -
18/08:30pm 22.2 NNE 12 14 1024.2 - 0.0 - Mostly clear 10 - - - -
18/08:00pm 22.2 NE 11 13 1024.4 - 0.0 - Partly cloudy 10 - - - -
18/07:30pm 22.2 NE 11 12 1024.0 - 0.0 - Partly cloudy 10 - - - -
18/07:00pm 22.0 NE 11 14 1024.0 - 0.0 - Partly cloudy 10 - - - -
18/06:30pm 21.9 NE 11 13 1023.6 - 0.0 - - 10 - - - -
18/06:00pm 21.9 NE 10 12 1023.3 - 0.0 - Partly cloudy 10 - - - -
18/05:30pm 22.0 NNE 9 11 1023.1 - 0.0 - Mostly clear 10 - - - -
18/05:00pm 21.9 NNE 8 10 1023.0 - 0.0 - Partly cloudy 10 - - - -
18/04:30pm 22.3 NNE 7 11 1022.9 - 0.0 - Partly cloudy 10 - - - -
18/04:00pm 22.9 NNE 7 9 1022.9 - 0.0 - - 10 - - - -
18/03:30pm 22.7 NNE 7 10 1022.8 - 0.0 - - 10 - - - -
18/03:00pm 23.3 NNE 7 10 1023.0 - 0.0 - Partly cloudy 10 - - - -
18/02:30pm 23.5 NNE 7 9 1023.1 F 0.0 Fine Partly cloudy 30 - - - -
18/02:00pm 23.8 NNE 7 9 1023.2 - 0.0 - - 10 - - - -
18/01:30pm 24.6 NNE 8 11 1023.4 - 0.0 - Partly cloudy 10 - - - -
18/01:00pm 24.4 NNE 8 12 1023.7 - 0.0 - Partly cloudy 10 - - - -
18/12:30pm 24.1 NNE 8 11 1024.1 - 0.0 - Partly cloudy 10 - - - -
18/12:00pm 24.5 NNE 8 11 1024.5 - 0.0 - - 10 - - - -
18/11:30am 24.7 NNE 7 10 1024.9 - 0.0 - Mostly clear 10 - - - -
18/11:00am 24.5 NNE 8 11 1025.2 - 0.0 - - 10 - - - -
18/10:30am 24.3 NNE 8 11 1025.4 - 0.0 - - 10 - - - -
18/10:00am 24.5 NNE 8 10 1025.7 - 0.0 - - 10 - - - -
18/09:30am 24.2 NE 8 10 1025.8 - 0.0 - - 10 - - - -
18/09:00am 24.1 NNE 6 9 1025.9 - 0.0 - - 10 - - - -
18/08:30am 23.7 NE 8 11 1025.8 R 0.0 Fine Partly cloudy 25 - - - -
18/08:00am 23.0 N 3 5 1025.8 - 0.0 - Partly cloudy 10 - - - -
18/07:30am 22.8 NNE 5 10 1025.5 - 0.0 - Partly cloudy 10 - - - -
18/07:00am 22.4 NNE 4 8 1025.2 - 0.0 - Partly cloudy 10 - - - -
18/06:30am 20.0 N 4 5 1025.0 - 0.0 - - 10 - - - -
18/06:00am 17.2 CALM 0 0 1024.7 - 0.0 - Partly cloudy 10 - - - -
18/05:30am 17.8 CALM 0 0 1024.7 F 0.0 Fine Partly cloudy 20 - - - -
18/05:00am 18.0 CALM 0 0 1024.7 - 0.0 - Partly cloudy 10 - - - -
18/04:30am 17.8 CALM 0 0 1024.4 - 0.0 - Partly cloudy 10 - - - -
18/04:00am 17.2 CALM 0 0 1024.4 - 0.0 - Partly cloudy 10 - - - -
18/03:30am 17.5 CALM 0 0 1024.2 - 0.0 - - 10 - - - -
18/03:00am 17.2 CALM 0 0 1024.1 - 0.0 - - 10 - - - -
18/02:30am 17.6 CALM 0 0 1024.1 - 0.0 - - 10 - - - -
18/02:00am 18.6 CALM 0 0 1024.2 - 0.0 - - 10 - - - -
18/01:30am 18.4 CALM 0 0 1024.2 - 0.0 - - 10 - - - -
18/01:00am 18.2 CALM 0 0 1024.5 - 0.0 - - 10 - - - -
18/12:30am 17.6 NNE 1 4 1024.8 - 0.0 - - 10 - - - -
18/12:00am 17.0 CALM 0 0 1025.0 - 0.0 - - 10 - - - -
 
Date/Time
EST
Temp

°C
Wind Pressure Rain
since 9am
mm
Weather Cloud Vis
km
Sea
Height
m
Swell
Dir
 
Speed
knots
Gust
knots
hPa Trend Height
m
Period
s
Dir
17/11:30pm 17.3 CALM 0 0 1025.1 - 0.0 - - 10 - - - -
17/11:00pm 17.3 CALM 0 0 1025.2 - 0.0 - - 10 - - - -
17/10:30pm 17.7 CALM 0 0 1025.3 - 0.0 - - 10 - - - -
17/10:00pm 18.3 CALM 0 0 1025.4 - 0.0 - - 10 - - - -
17/09:30pm 18.6 CALM 0 0 1025.5 - 0.0 - - 10 - - - -
17/09:00pm 18.8 NNW 1 3 1025.4 - 0.0 - - 10 - - - -
17/08:30pm 18.6 CALM 0 3 1025.5 - 0.0 - - 10 - - - -
17/08:00pm 19.0 CALM 0 0 1025.6 - 0.0 - Partly cloudy 10 - - - -
17/07:30pm 18.8 CALM 0 0 1025.4 - 0.0 - Partly cloudy 10 - - - -
17/07:00pm 18.3 CALM 0 0 1025.0 - 0.0 - Partly cloudy 10 - - - -
17/06:30pm 19.0 CALM 0 0 1024.8 - 0.0 - - 10 - - - -
17/06:00pm 19.5 CALM 0 0 1024.5 - 0.0 - - 10 - - - -
17/05:30pm 20.3 CALM 0 0 1024.2 - 0.0 - - 10 - - - -
17/05:00pm 21.6 WNW 1 5 1023.9 - 0.0 - - 10 - - - -
17/04:30pm 22.8 WNW 4 6 1023.8 - 0.0 - Partly cloudy 10 - - - -
17/04:00pm 23.2 W 5 8 1023.8 - 0.0 - - 10 - - - -
17/03:30pm 23.5 W 5 7 1023.8 - 0.0 - - 10 - - - -
17/03:00pm 23.9 WNW 5 8 1023.7 - 0.0 - - 10 - - - -
17/02:30pm 24.0 W 7 9 1023.6 F 0.0 Fine Mostly clear 30 - - - -
17/02:00pm 24.3 W 7 10 1023.7 - 0.0 - - 10 - - - -
17/01:30pm 24.1 W 8 11 1023.8 - 0.0 - - 10 - - - -
17/01:00pm 24.3 WNW 7 10 1024.0 - 0.0 - - 10 - - - -
17/12:30pm 24.2 W 8 11 1024.4 - 0.0 - - 10 - - - -
17/12:00pm 24.2 WNW 7 10 1024.8 - 0.0 - - 10 - - - -
17/11:30am 24.5 NNW 6 10 1025.3 - 0.0 - - 10 - - - -
17/11:00am 24.2 NNE 10 13 1025.5 - 0.0 - - 10 - - - -
17/10:30am 24.1 NNE 10 12 1025.7 - 0.0 - - 10 - - - -
17/10:00am 24.1 NNE 8 11 1026.0 - 0.0 - - 10 - - - -
17/09:30am 23.9 NNW 3 5 1026.3 - 0.0 - Partly cloudy 10 - - - -
17/09:00am 23.0 NW 2 5 1026.7 - 0.0 - Cloudy 10 - - - -
17/08:30am 22.6 WNW 3 4 1026.8 R 0.0 Fine Mostly cloudy 25 - - - -
17/08:00am 22.0 N 4 5 1026.7 - 0.0 - Cloudy 10 - - - -
17/07:30am 21.2 CALM 0 0 1026.5 - 0.0 - Cloudy 10 - - - -
17/07:00am 20.3 CALM 0 0 1026.2 - 0.0 - Cloudy 10 - - - -
17/06:30am 19.9 CALM 0 0 1025.6 - 0.0 - Cloudy 10 - - - -
17/06:00am 19.4 CALM 0 0 1025.0 - 0.0 - Cloudy 10 - - - -
17/05:30am 18.9 CALM 0 0 1024.7 F 0.0 Fine Mostly cloudy 20 - - - -
17/05:00am 18.5 CALM 0 0 1024.5 - 0.0 - Cloudy 10 - - - -
17/04:30am 18.0 CALM 0 0 1024.4 - 0.0 - Partly cloudy 10 - - - -
17/04:00am 18.4 CALM 0 0 1024.3 - 0.0 - Cloudy 10 - - - -
17/03:30am 18.5 N 2 5 1024.0 - 0.0 - Partly cloudy 10 - - - -
17/03:00am 18.0 CALM 0 0 1024.2 - 0.0 - Partly cloudy 10 - - - -
17/02:30am 17.9 W 1 4 1024.4 - 0.0 - Mostly clear 10 - - - -
17/02:00am 18.0 CALM 0 3 1024.3 - 0.0 - Partly cloudy 10 - - - -
17/01:30am 18.5 N 3 5 1024.7 - 0.0 - Partly cloudy 10 - - - -
17/01:00am 19.9 N 5 10 1024.8 - 0.0 - Partly cloudy 10 - - - -
17/12:30am 20.0 N 5 8 1025.1 - 0.0 - Partly cloudy 10 - - - -
17/12:00am 20.6 N 4 7 1025.3 - 0.0 - Partly cloudy 10 - - - -
 
Date/Time
EST
Temp

°C
Wind Pressure Rain
since 9am
mm
Weather Cloud Vis
km
Sea
Height
m
Swell
Dir
 
Speed
knots
Gust
knots
hPa Trend Height
m
Period
s
Dir
16/11:30pm 20.6 N 6 9 1025.2 - 0.0 - Partly cloudy 10 - - - -
16/11:00pm 20.3 N 5 7 1025.3 - 0.0 - Partly cloudy 10 - - - -
16/10:30pm 20.3 N 5 9 1025.5 - 0.0 - Partly cloudy 10 - - - -
16/10:00pm 20.3 N 5 25 1025.7 - 0.0 - Partly cloudy 10 - - - -
16/09:30pm 20.6 NNE 7 9 1025.9 - 0.0 - Partly cloudy 10 - - - -
16/09:00pm 20.2 NNE 7 9 1026.0 - 0.0 - Partly cloudy 10 - - - -
16/08:30pm 20.2 NNE 7 9 1026.0 - 0.0 - - 10 - - - -

Other Formats:

Comma delimited format used in spreadsheet applications
http://www.bom.gov.au/fwo/IDN60701/IDN60701.94995.axf

JavaScript Object Notation format (JSON) in row-major order
http://www.bom.gov.au/fwo/IDN60701/IDN60701.94995.json